createdAt,value
2016-10-21T00:00:42.097Z,0
2016-10-21T00:01:42.110Z,0
2016-10-21T00:02:42.163Z,0
2016-10-21T00:03:42.183Z,0
2016-10-21T00:04:42.197Z,0
2016-10-21T00:05:42.204Z,0
2016-10-21T00:06:42.233Z,0
2016-10-21T00:07:42.268Z,0
2016-10-21T00:08:42.269Z,0
2016-10-21T00:09:42.293Z,0
2016-10-21T00:10:42.296Z,0
2016-10-21T00:11:42.307Z,0
2016-10-21T00:12:42.357Z,0
2016-10-21T00:13:42.330Z,0
2016-10-21T00:14:42.335Z,0
2016-10-21T00:15:42.390Z,0
2016-10-21T00:16:42.369Z,0
2016-10-21T00:17:42.405Z,0
2016-10-21T00:18:42.428Z,0
2016-10-21T00:19:42.447Z,0
2016-10-21T00:20:42.456Z,0
2016-10-21T00:21:42.438Z,0
2016-10-21T00:22:42.457Z,0
2016-10-21T00:23:42.485Z,0
2016-10-21T00:24:42.555Z,0
2016-10-21T00:25:42.503Z,0
2016-10-21T00:26:42.525Z,0
2016-10-21T00:27:42.549Z,0
2016-10-21T00:28:42.561Z,0
2016-10-21T00:29:42.572Z,0
2016-10-21T00:30:42.614Z,0
2016-10-21T00:31:42.619Z,0
2016-10-21T00:32:42.637Z,0
2016-10-21T00:33:42.719Z,0
2016-10-21T00:34:42.677Z,0
2016-10-21T00:35:42.747Z,0
2016-10-21T00:36:42.746Z,0
2016-10-21T00:37:42.741Z,0
2016-10-21T00:38:42.829Z,0
2016-10-21T00:39:42.811Z,0
2016-10-21T00:40:42.813Z,0
2016-10-21T00:41:42.804Z,0
2016-10-21T00:42:42.820Z,0
2016-10-21T00:43:42.849Z,0
2016-10-21T00:44:42.872Z,0
2016-10-21T00:45:42.835Z,0
2016-10-21T00:46:43.181Z,0
2016-10-21T00:47:42.885Z,0
2016-10-21T00:48:42.909Z,0
2016-10-21T00:49:42.958Z,0
2016-10-21T00:50:42.973Z,0
2016-10-21T00:51:42.939Z,0
2016-10-21T00:52:42.963Z,0
2016-10-21T00:53:42.995Z,0
2016-10-21T00:54:42.997Z,0
2016-10-21T00:55:43.017Z,0
2016-10-21T00:56:43.043Z,0
2016-10-21T00:57:43.107Z,0
2016-10-21T00:58:43.147Z,0
2016-10-21T00:59:43.096Z,0
2016-10-21T01:00:43.129Z,0
2016-10-21T01:01:43.143Z,0
2016-10-21T01:02:43.153Z,0
2016-10-21T01:03:43.172Z,0
2016-10-21T01:04:43.265Z,0
2016-10-21T01:05:43.230Z,0
2016-10-21T01:06:43.216Z,0
2016-10-21T01:07:43.278Z,0
2016-10-21T01:08:43.247Z,0
2016-10-21T01:09:43.298Z,0
2016-10-21T01:10:43.285Z,0
2016-10-21T01:11:43.299Z,0
2016-10-21T01:12:43.317Z,0
2016-10-21T01:13:43.338Z,0
2016-10-21T01:14:43.393Z,0
2016-10-21T01:15:43.413Z,0
2016-10-21T01:16:43.453Z,0
2016-10-21T01:17:43.451Z,0
2016-10-21T01:18:43.487Z,0
2016-10-21T01:19:43.580Z,0
2016-10-21T01:20:43.494Z,0
2016-10-21T01:21:43.504Z,0
2016-10-21T01:22:43.486Z,0
2016-10-21T01:23:43.550Z,0
2016-10-21T01:24:43.555Z,0
2016-10-21T01:25:43.602Z,0
2016-10-21T01:26:43.593Z,0
2016-10-21T01:27:43.631Z,0
2016-10-21T01:28:43.670Z,0
2016-10-21T01:29:43.703Z,0
2016-10-21T01:30:43.651Z,0
2016-10-21T01:31:43.656Z,0
2016-10-21T01:32:43.692Z,0
2016-10-21T01:33:43.732Z,0
2016-10-21T01:34:43.752Z,0
2016-10-21T01:35:43.704Z,0
2016-10-21T01:36:43.740Z,0
2016-10-21T01:37:43.750Z,0
2016-10-21T01:38:43.996Z,0
2016-10-21T01:39:43.800Z,0
2016-10-21T01:40:43.822Z,0
2016-10-21T01:41:43.847Z,0
2016-10-21T01:42:43.899Z,0
2016-10-21T01:43:43.867Z,0
2016-10-21T01:44:43.886Z,0
2016-10-21T01:45:43.912Z,0
2016-10-21T01:46:43.888Z,0
2016-10-21T01:47:43.939Z,0
2016-10-21T01:48:44.008Z,0
2016-10-21T01:49:43.961Z,0
2016-10-21T01:50:43.989Z,0
2016-10-21T01:51:44.016Z,0
2016-10-21T01:52:44.025Z,0
2016-10-21T01:53:44.067Z,0
2016-10-21T01:54:44.041Z,0
2016-10-21T01:55:44.090Z,0
2016-10-21T01:56:44.144Z,0
2016-10-21T01:57:44.112Z,0
2016-10-21T01:58:44.130Z,0
2016-10-21T01:59:44.400Z,0
2016-10-21T02:00:44.189Z,0
2016-10-21T02:01:44.227Z,0
2016-10-21T02:02:44.215Z,0
2016-10-21T02:03:44.247Z,0
2016-10-21T02:04:44.284Z,0
2016-10-21T02:05:44.265Z,0
2016-10-21T02:06:44.315Z,0
2016-10-21T02:07:44.314Z,0
2016-10-21T02:08:44.347Z,0
2016-10-21T02:09:44.347Z,0
2016-10-21T02:10:44.368Z,0
2016-10-21T02:11:44.391Z,0
2016-10-21T02:12:44.468Z,0
2016-10-21T02:13:44.456Z,0
2016-10-21T02:14:44.382Z,0
2016-10-21T02:15:44.747Z,0
2016-10-21T02:16:44.483Z,0
2016-10-21T02:17:44.821Z,0
2016-10-21T02:18:44.607Z,0
2016-10-21T02:19:44.498Z,0
2016-10-21T02:20:44.513Z,0
2016-10-21T02:21:44.517Z,0
2016-10-21T02:22:44.509Z,0
2016-10-21T02:23:44.595Z,0
2016-10-21T02:24:44.676Z,0
2016-10-21T02:25:44.766Z,0
2016-10-21T02:26:44.840Z,0
2016-10-21T02:27:44.946Z,0
2016-10-21T02:28:44.790Z,0
2016-10-21T02:29:44.716Z,0
2016-10-21T02:30:44.649Z,0
2016-10-21T02:31:44.783Z,0
2016-10-21T02:32:45.036Z,0
2016-10-21T02:33:45.059Z,0
2016-10-21T02:34:44.805Z,0
2016-10-21T02:35:44.778Z,0
2016-10-21T02:36:44.747Z,0
2016-10-21T02:37:44.796Z,0
2016-10-21T02:38:44.849Z,0
2016-10-21T02:39:44.859Z,0
2016-10-21T02:40:44.890Z,0
2016-10-21T02:41:44.903Z,0
2016-10-21T02:42:44.831Z,0
2016-10-21T02:43:44.942Z,0
2016-10-21T02:44:45.178Z,0
2016-10-21T02:45:44.896Z,0
2016-10-21T02:46:45.088Z,0
2016-10-21T02:47:45.324Z,0
2016-10-21T02:48:45.071Z,0
2016-10-21T02:49:45.125Z,0
2016-10-21T02:50:45.290Z,0
2016-10-21T02:51:45.284Z,0
2016-10-21T02:52:45.283Z,0
2016-10-21T02:53:45.085Z,0
2016-10-21T02:54:45.291Z,0
2016-10-21T02:55:45.152Z,0
2016-10-21T02:56:45.392Z,0
2016-10-21T02:57:45.233Z,0
2016-10-21T02:58:45.202Z,0
2016-10-21T02:59:45.284Z,0
2016-10-21T03:00:45.395Z,0
2016-10-21T03:01:45.376Z,0
2016-10-21T03:02:45.526Z,0
2016-10-21T03:03:45.664Z,0
2016-10-21T03:04:45.510Z,0
2016-10-21T03:05:45.562Z,0
2016-10-21T03:06:45.217Z,0
2016-10-21T03:07:45.283Z,0
2016-10-21T03:08:45.456Z,0
2016-10-21T03:09:45.462Z,0
2016-10-21T03:10:45.393Z,0
2016-10-21T03:11:45.367Z,0
2016-10-21T03:12:45.356Z,0
2016-10-21T03:13:45.418Z,0
2016-10-21T03:14:45.435Z,0
2016-10-21T03:15:45.411Z,0
2016-10-21T03:16:45.473Z,0
2016-10-21T03:17:45.473Z,0
2016-10-21T03:18:45.491Z,0
2016-10-21T03:19:45.478Z,0
2016-10-21T03:20:45.513Z,0
2016-10-21T03:21:45.820Z,0
2016-10-21T03:22:45.574Z,0
2016-10-21T03:23:45.573Z,0
2016-10-21T03:24:45.583Z,0
2016-10-21T03:25:45.602Z,0
2016-10-21T03:26:45.674Z,0
2016-10-21T03:27:45.611Z,0
2016-10-21T03:28:45.615Z,0
2016-10-21T03:29:45.684Z,0
2016-10-21T03:30:46.029Z,0
2016-10-21T03:31:45.687Z,0
2016-10-21T03:32:46.045Z,0
2016-10-21T03:33:45.740Z,0
2016-10-21T03:34:45.700Z,0
2016-10-21T03:35:45.814Z,0
2016-10-21T03:36:45.773Z,0
2016-10-21T03:37:45.786Z,0
2016-10-21T03:38:45.854Z,0
2016-10-21T03:39:45.838Z,0
2016-10-21T03:40:45.863Z,0
2016-10-21T03:41:45.893Z,0
2016-10-21T03:42:45.884Z,0
2016-10-21T03:43:45.931Z,0
2016-10-21T03:44:45.929Z,0
2016-10-21T03:45:45.928Z,0
2016-10-21T03:46:45.973Z,0
2016-10-21T03:47:45.948Z,0
2016-10-21T03:48:45.992Z,0
2016-10-21T03:49:46.025Z,0
2016-10-21T03:50:46.054Z,0
2016-10-21T03:51:46.034Z,0
2016-10-21T03:52:46.045Z,0
2016-10-21T03:53:46.026Z,0
2016-10-21T03:54:46.077Z,0
2016-10-21T03:55:46.088Z,0
2016-10-21T03:56:46.117Z,0
2016-10-21T03:57:46.102Z,0
2016-10-21T03:58:46.154Z,0
2016-10-21T03:59:46.195Z,0
2016-10-21T04:00:46.187Z,0
2016-10-21T04:01:46.185Z,0
2016-10-21T04:02:46.232Z,0
2016-10-21T04:03:46.227Z,0
2016-10-21T04:04:46.223Z,0
2016-10-21T04:05:46.197Z,0
2016-10-21T04:06:46.242Z,0
2016-10-21T04:07:46.338Z,0
2016-10-21T04:08:46.304Z,0
2016-10-21T04:09:46.288Z,0
2016-10-21T04:10:46.312Z,0
2016-10-21T04:11:47.004Z,0
2016-10-21T04:12:46.343Z,0
2016-10-21T04:13:46.420Z,0
2016-10-21T04:14:46.402Z,0
2016-10-21T04:15:46.430Z,0
2016-10-21T04:16:46.415Z,0
2016-10-21T04:17:46.436Z,0
2016-10-21T04:18:46.487Z,0
2016-10-21T04:19:46.458Z,0
2016-10-21T04:20:46.495Z,0
2016-10-21T04:21:46.529Z,0
2016-10-21T04:22:46.543Z,0
2016-10-21T04:23:46.567Z,0
2016-10-21T04:24:46.530Z,0
2016-10-21T04:25:46.931Z,0
2016-10-21T04:26:46.747Z,0
2016-10-21T04:27:46.615Z,0
2016-10-21T04:28:46.683Z,0
2016-10-21T04:29:46.655Z,0
2016-10-21T04:30:46.995Z,0
2016-10-21T04:31:47.001Z,0
2016-10-21T04:32:46.831Z,0
2016-10-21T04:33:46.683Z,0
2016-10-21T04:34:46.792Z,0
2016-10-21T04:35:46.809Z,0
2016-10-21T04:36:46.765Z,0
2016-10-21T04:37:46.735Z,0
2016-10-21T04:38:46.862Z,0
2016-10-21T04:39:46.826Z,0
2016-10-21T04:40:46.951Z,0
2016-10-21T04:41:47.035Z,0
2016-10-21T04:42:46.806Z,0
2016-10-21T04:43:46.883Z,0
2016-10-21T04:44:46.810Z,0
2016-10-21T04:45:46.856Z,0
2016-10-21T04:46:46.935Z,0
2016-10-21T04:47:47.056Z,0
2016-10-21T04:48:46.940Z,0
2016-10-21T04:49:47.118Z,0
2016-10-21T04:50:46.965Z,0
2016-10-21T04:51:46.961Z,0
2016-10-21T04:52:47.097Z,0
2016-10-21T04:53:47.240Z,0
2016-10-21T04:54:47.181Z,0
2016-10-21T04:55:47.086Z,0
2016-10-21T04:56:47.148Z,0
2016-10-21T04:57:47.386Z,0
2016-10-21T04:58:47.146Z,0
2016-10-21T04:59:47.117Z,0
2016-10-21T05:00:47.284Z,0
2016-10-21T05:01:47.119Z,0
2016-10-21T05:02:47.233Z,0
2016-10-21T05:03:47.175Z,0
2016-10-21T05:04:47.275Z,0
2016-10-21T05:05:47.399Z,0
2016-10-21T05:06:47.409Z,0
2016-10-21T05:07:47.446Z,0
2016-10-21T05:08:47.563Z,0
2016-10-21T05:09:47.454Z,0
2016-10-21T05:10:47.463Z,0
2016-10-21T05:11:47.288Z,0
2016-10-21T05:12:47.457Z,0
2016-10-21T05:13:47.478Z,0
2016-10-21T05:14:47.458Z,0
2016-10-21T05:15:47.400Z,0
2016-10-21T05:16:47.409Z,0
2016-10-21T05:17:47.542Z,0
2016-10-21T05:18:47.576Z,0
2016-10-21T05:19:47.420Z,0
2016-10-21T05:20:47.590Z,0
2016-10-21T05:21:47.603Z,0
2016-10-21T05:22:47.599Z,0
2016-10-21T05:23:47.612Z,0
2016-10-21T05:24:47.614Z,0
2016-10-21T05:25:47.519Z,0
2016-10-21T05:26:47.637Z,0
2016-10-21T05:27:47.612Z,0
2016-10-21T05:28:47.680Z,0
2016-10-21T05:29:47.693Z,0
2016-10-21T05:30:47.707Z,0
2016-10-21T05:31:47.717Z,0
2016-10-21T05:32:47.694Z,0
2016-10-21T05:33:47.716Z,0
2016-10-21T05:34:47.691Z,0
2016-10-21T05:35:47.723Z,0
2016-10-21T05:36:47.740Z,0
2016-10-21T05:37:47.777Z,0
2016-10-21T05:38:47.758Z,0
2016-10-21T05:39:47.777Z,0
2016-10-21T05:40:47.830Z,0
2016-10-21T05:41:47.802Z,0
2016-10-21T05:42:47.833Z,0
2016-10-21T05:43:47.832Z,0
2016-10-21T05:44:47.882Z,0
2016-10-21T05:45:47.889Z,0
2016-10-21T05:46:47.898Z,0
2016-10-21T05:47:47.919Z,0
2016-10-21T05:48:47.959Z,0
2016-10-21T05:49:47.956Z,0
2016-10-21T05:50:47.981Z,0
2016-10-21T05:51:48.214Z,0
2016-10-21T05:52:48.211Z,0
2016-10-21T05:53:48.001Z,0
2016-10-21T05:54:47.957Z,0
2016-10-21T05:55:47.978Z,0
2016-10-21T05:56:47.989Z,0
2016-10-21T05:57:48.008Z,0
2016-10-21T05:58:48.141Z,0
2016-10-21T05:59:48.110Z,0
2016-10-21T06:00:48.165Z,0
2016-10-21T06:01:48.159Z,0
2016-10-21T06:02:48.175Z,0
2016-10-21T06:03:48.244Z,0
2016-10-21T06:04:48.121Z,0
2016-10-21T06:05:48.179Z,0
2016-10-21T06:06:48.211Z,0
2016-10-21T06:07:48.246Z,0
2016-10-21T06:08:48.366Z,0
2016-10-21T06:09:48.379Z,0
2016-10-21T06:10:48.380Z,0
2016-10-21T06:11:48.264Z,0
2016-10-21T06:12:48.259Z,0
2016-10-21T06:13:48.326Z,0
2016-10-21T06:14:48.333Z,0
2016-10-21T06:15:48.301Z,0
2016-10-21T06:16:48.472Z,0
2016-10-21T06:17:48.351Z,0
2016-10-21T06:18:48.357Z,0
2016-10-21T06:19:48.370Z,0
2016-10-21T06:20:48.369Z,0
2016-10-21T06:21:48.506Z,0
2016-10-21T06:22:48.546Z,0
2016-10-21T06:23:48.655Z,0
2016-10-21T06:24:48.565Z,0
2016-10-21T06:25:48.560Z,0
2016-10-21T06:26:48.587Z,0
2016-10-21T06:27:48.620Z,0
2016-10-21T06:28:48.628Z,0
2016-10-21T06:29:48.642Z,0
2016-10-21T06:30:48.656Z,0
2016-10-21T06:31:48.662Z,0
2016-10-21T06:32:48.653Z,0
2016-10-21T06:33:48.711Z,0
2016-10-21T06:34:48.705Z,0
2016-10-21T06:35:48.716Z,0
2016-10-21T06:36:48.735Z,0
2016-10-21T06:37:48.724Z,0
2016-10-21T06:38:48.732Z,0
2016-10-21T06:39:48.686Z,0
2016-10-21T06:40:48.736Z,0
2016-10-21T06:41:48.726Z,0
2016-10-21T06:42:48.835Z,0
2016-10-21T06:43:48.964Z,0
2016-10-21T06:44:48.945Z,0
2016-10-21T06:45:48.846Z,0
2016-10-21T06:46:48.888Z,0
2016-10-21T06:47:48.847Z,0
2016-10-21T06:48:48.911Z,5
2016-10-21T06:49:48.955Z,5
2016-10-21T06:50:48.903Z,5
2016-10-21T06:51:48.946Z,5
2016-10-21T06:52:48.905Z,5
2016-10-21T06:53:48.911Z,5
2016-10-21T06:54:48.925Z,5
2016-10-21T06:55:48.974Z,5
2016-10-21T06:56:48.957Z,5
2016-10-21T06:57:49.157Z,5
2016-10-21T06:58:49.085Z,5
2016-10-21T06:59:49.043Z,5
2016-10-21T07:00:49.197Z,5
2016-10-21T07:01:49.184Z,5
2016-10-21T07:02:49.087Z,5
2016-10-21T07:03:49.124Z,5
2016-10-21T07:04:49.096Z,5
2016-10-21T07:05:49.155Z,5
2016-10-21T07:06:49.309Z,5
2016-10-21T07:07:49.247Z,5
2016-10-21T07:08:49.239Z,5
2016-10-21T07:09:49.207Z,5
2016-10-21T07:10:49.373Z,5
2016-10-21T07:11:49.289Z,5
2016-10-21T07:12:49.323Z,5
2016-10-21T07:13:49.285Z,5
2016-10-21T07:14:49.281Z,5
2016-10-21T07:15:49.337Z,5
2016-10-21T07:16:49.346Z,5
2016-10-21T07:17:49.322Z,5
2016-10-21T07:18:49.422Z,5
2016-10-21T07:19:49.555Z,5
2016-10-21T07:20:49.463Z,5
2016-10-21T07:21:49.434Z,5
2016-10-21T07:22:49.445Z,5
2016-10-21T07:23:49.404Z,5
2016-10-21T07:24:49.421Z,5
2016-10-21T07:25:49.501Z,5
2016-10-21T07:26:49.635Z,5
2016-10-21T07:27:49.643Z,5
2016-10-21T07:28:49.496Z,5
2016-10-21T07:29:49.574Z,5
2016-10-21T07:30:49.562Z,5
2016-10-21T07:31:49.777Z,0
2016-10-21T07:32:49.625Z,0
2016-10-21T07:33:49.631Z,0
2016-10-21T07:34:49.613Z,0
2016-10-21T07:35:49.633Z,0
2016-10-21T07:36:49.623Z,0
2016-10-21T07:37:49.656Z,5
2016-10-21T07:38:49.811Z,5
2016-10-21T07:39:49.866Z,10
2016-10-21T07:40:50.064Z,5
2016-10-21T07:41:49.905Z,5
2016-10-21T07:42:49.886Z,5
2016-10-21T07:43:49.963Z,0
2016-10-21T07:44:49.843Z,0
2016-10-21T07:45:50.065Z,0
2016-10-21T07:46:50.114Z,5
2016-10-21T07:47:50.200Z,5
2016-10-21T07:48:50.137Z,5
2016-10-21T07:49:50.138Z,5
2016-10-21T07:50:49.982Z,5
2016-10-21T07:51:49.960Z,5
2016-10-21T07:52:49.912Z,5
2016-10-21T07:53:49.971Z,5
2016-10-21T07:54:49.989Z,0
2016-10-21T07:55:50.033Z,5
2016-10-21T07:56:50.013Z,5
2016-10-21T07:57:50.085Z,10
2016-10-21T07:58:50.044Z,10
2016-10-21T07:59:50.029Z,10
2016-10-21T08:00:50.067Z,10
2016-10-21T08:01:50.161Z,10
2016-10-21T08:02:50.154Z,10
2016-10-21T08:03:50.125Z,15
2016-10-21T08:04:50.092Z,15
2016-10-21T08:05:50.105Z,15
2016-10-21T08:06:50.175Z,20
2016-10-21T08:07:50.298Z,20
2016-10-21T08:08:50.240Z,20
2016-10-21T08:09:50.255Z,20
2016-10-21T08:10:50.207Z,20
2016-10-21T08:11:50.270Z,20
2016-10-21T08:12:50.313Z,20
2016-10-21T08:13:50.253Z,20
2016-10-21T08:14:50.285Z,20
2016-10-21T08:15:50.289Z,20
2016-10-21T08:16:50.326Z,20
2016-10-21T08:17:50.388Z,25
2016-10-21T08:18:50.352Z,25
2016-10-21T08:19:50.478Z,25
2016-10-21T08:20:50.438Z,20
2016-10-21T08:21:50.439Z,25
2016-10-21T08:22:50.476Z,25
2016-10-21T08:23:50.467Z,25
2016-10-21T08:24:50.501Z,20
2016-10-21T08:25:50.483Z,20
2016-10-21T08:26:50.552Z,20
2016-10-21T08:27:50.522Z,25
2016-10-21T08:28:50.502Z,25
2016-10-21T08:29:50.856Z,20
2016-10-21T08:30:50.508Z,20
2016-10-21T08:31:50.617Z,15
2016-10-21T08:32:50.628Z,10
2016-10-21T08:33:50.811Z,10
2016-10-21T08:34:50.791Z,10
2016-10-21T08:35:50.812Z,10
2016-10-21T08:36:50.805Z,15
2016-10-21T08:37:50.679Z,15
2016-10-21T08:38:50.648Z,15
2016-10-21T08:39:50.992Z,15
2016-10-21T08:40:50.694Z,20
2016-10-21T08:41:50.693Z,20
2016-10-21T08:42:50.719Z,25
2016-10-21T08:43:50.740Z,25
2016-10-21T08:44:50.840Z,25
2016-10-21T08:45:50.793Z,25
2016-10-21T08:46:50.767Z,25
2016-10-21T08:47:50.857Z,25
2016-10-21T08:48:50.906Z,25
2016-10-21T08:49:50.950Z,20
2016-10-21T08:50:50.946Z,20
2016-10-21T08:51:50.892Z,15
2016-10-21T08:52:50.902Z,15
2016-10-21T08:53:51.256Z,10
2016-10-21T08:54:51.103Z,15
2016-10-21T08:55:50.967Z,15
2016-10-21T08:56:51.074Z,15
2016-10-21T08:57:51.112Z,15
2016-10-21T08:58:51.099Z,15
2016-10-21T08:59:51.071Z,20
2016-10-21T09:00:51.075Z,20
2016-10-21T09:01:51.085Z,15
2016-10-21T09:02:51.074Z,15
2016-10-21T09:03:51.212Z,15
2016-10-21T09:04:51.117Z,15
2016-10-21T09:05:51.139Z,15
2016-10-21T09:06:51.386Z,10
2016-10-21T09:07:51.271Z,10
2016-10-21T09:08:51.240Z,10
2016-10-21T09:09:51.188Z,15
2016-10-21T09:10:51.255Z,15
2016-10-21T09:11:51.308Z,15
2016-10-21T09:12:51.357Z,15
2016-10-21T09:13:51.357Z,15
2016-10-21T09:14:51.289Z,15
2016-10-21T09:15:51.321Z,15
2016-10-21T09:16:51.374Z,15
2016-10-21T09:17:51.358Z,15
2016-10-21T09:18:51.357Z,20
2016-10-21T09:19:51.403Z,20
2016-10-21T09:20:51.420Z,20
2016-10-21T09:21:51.434Z,20
2016-10-21T09:22:51.430Z,20
2016-10-21T09:23:51.487Z,25
2016-10-21T09:24:51.790Z,25
2016-10-21T09:25:51.708Z,25
2016-10-21T09:26:51.713Z,25
2016-10-21T09:27:51.690Z,25
2016-10-21T09:28:51.709Z,25
2016-10-21T09:29:51.865Z,25
2016-10-21T09:30:51.899Z,25
2016-10-21T09:31:51.707Z,25
2016-10-21T09:32:51.705Z,25
2016-10-21T09:33:51.745Z,30
2016-10-21T09:34:51.722Z,30
2016-10-21T09:35:51.744Z,25
2016-10-21T09:36:51.860Z,30
2016-10-21T09:37:51.797Z,30
2016-10-21T09:38:51.722Z,25
2016-10-21T09:39:51.682Z,25
2016-10-21T09:40:51.899Z,25
2016-10-21T09:41:51.862Z,30
2016-10-21T09:42:51.792Z,30
2016-10-21T09:43:51.914Z,30
2016-10-21T09:44:51.802Z,30
2016-10-21T09:45:51.785Z,25
2016-10-21T09:46:51.941Z,25
2016-10-21T09:47:51.974Z,30
2016-10-21T09:48:51.976Z,30
2016-10-21T09:49:51.863Z,30
2016-10-21T09:50:52.018Z,30
2016-10-21T09:51:52.012Z,30
2016-10-21T09:52:52.051Z,30
2016-10-21T09:53:51.984Z,30
2016-10-21T09:54:51.959Z,30
2016-10-21T09:55:52.005Z,30
2016-10-21T09:56:52.174Z,30
2016-10-21T09:57:52.037Z,30
2016-10-21T09:58:51.995Z,25
2016-10-21T09:59:52.027Z,25
2016-10-21T10:00:52.047Z,25
2016-10-21T10:01:52.494Z,30
2016-10-21T10:02:52.079Z,25
2016-10-21T10:03:52.162Z,25
2016-10-21T10:04:52.105Z,25
2016-10-21T10:05:52.102Z,25
2016-10-21T10:06:52.223Z,25
2016-10-21T10:07:52.181Z,25
2016-10-21T10:08:52.278Z,30
2016-10-21T10:09:52.182Z,25
2016-10-21T10:10:52.208Z,25
2016-10-21T10:11:52.214Z,25
2016-10-21T10:12:52.244Z,25
2016-10-21T10:13:52.236Z,30
2016-10-21T10:14:52.259Z,30
2016-10-21T10:15:52.304Z,30
2016-10-21T10:16:52.299Z,30
2016-10-21T10:17:52.330Z,25
2016-10-21T10:18:52.380Z,30
2016-10-21T10:19:52.526Z,30
2016-10-21T10:20:52.389Z,30
2016-10-21T10:21:52.439Z,30
2016-10-21T10:22:52.400Z,25
2016-10-21T10:23:52.527Z,30
2016-10-21T10:24:52.754Z,25
2016-10-21T10:25:52.449Z,25
2016-10-21T10:26:52.471Z,20
2016-10-21T10:27:52.507Z,20
2016-10-21T10:28:52.603Z,20
2016-10-21T10:29:52.611Z,15
2016-10-21T10:30:52.591Z,15
2016-10-21T10:31:52.591Z,10
2016-10-21T10:32:52.600Z,10
2016-10-21T10:33:52.624Z,10
2016-10-21T10:34:52.606Z,10
2016-10-21T10:35:52.767Z,10
2016-10-21T10:36:52.763Z,10
2016-10-21T10:37:52.654Z,10
2016-10-21T10:38:53.050Z,10
2016-10-21T10:39:52.690Z,10
2016-10-21T10:40:52.790Z,10
2016-10-21T10:41:52.773Z,10
2016-10-21T10:42:52.922Z,10
2016-10-21T10:43:52.853Z,15
2016-10-21T10:44:52.897Z,15
2016-10-21T10:45:52.927Z,15
2016-10-21T10:46:52.817Z,20
2016-10-21T10:47:52.854Z,20
2016-10-21T10:48:52.866Z,20
2016-10-21T10:49:52.869Z,20
2016-10-21T10:50:52.887Z,20
2016-10-21T10:51:52.922Z,25
2016-10-21T10:52:52.959Z,30
2016-10-21T10:53:52.963Z,30
2016-10-21T10:54:52.961Z,30
2016-10-21T10:55:52.968Z,30
2016-10-21T10:56:53.010Z,30
2016-10-21T10:57:53.027Z,35
2016-10-21T10:58:53.028Z,35
2016-10-21T10:59:54.224Z,35
2016-10-21T11:00:53.191Z,35
2016-10-21T11:01:53.186Z,30
2016-10-21T11:02:55.046Z,30
2016-10-21T11:03:53.237Z,25
2016-10-21T11:04:53.243Z,25
2016-10-21T11:05:53.358Z,20
2016-10-21T11:06:53.367Z,20
2016-10-21T11:07:53.372Z,20
2016-10-21T11:08:53.373Z,25
2016-10-21T11:09:53.395Z,30
2016-10-21T11:10:53.409Z,20
2016-10-21T11:11:53.424Z,15
2016-10-21T11:12:53.442Z,10
2016-10-21T11:13:53.602Z,10
2016-10-21T11:14:53.435Z,10
2016-10-21T11:15:53.577Z,15
2016-10-21T11:16:53.577Z,15
2016-10-21T11:17:53.497Z,20
2016-10-21T11:18:53.682Z,25
2016-10-21T11:19:53.501Z,15
2016-10-21T11:20:53.463Z,15
2016-10-21T11:21:53.575Z,15
2016-10-21T11:22:53.491Z,15
2016-10-21T11:23:53.596Z,15
2016-10-21T11:24:53.524Z,15
2016-10-21T11:25:53.530Z,15
2016-10-21T11:26:53.548Z,15
2016-10-21T11:27:53.537Z,15
2016-10-21T11:28:53.553Z,15
2016-10-21T11:29:53.696Z,15
2016-10-21T11:30:53.615Z,15
2016-10-21T11:31:53.817Z,15
2016-10-21T11:32:53.661Z,15
2016-10-21T11:33:53.849Z,15
2016-10-21T11:34:53.724Z,15
2016-10-21T11:35:53.819Z,10
2016-10-21T11:36:53.817Z,15
2016-10-21T11:37:53.903Z,15
2016-10-21T11:38:53.971Z,10
2016-10-21T11:39:53.812Z,10
2016-10-21T11:40:53.973Z,10
2016-10-21T11:41:53.906Z,10
2016-10-21T11:42:53.991Z,15
2016-10-21T11:43:53.887Z,10
2016-10-21T11:44:53.909Z,10
2016-10-21T11:45:54.263Z,10
2016-10-21T11:46:54.073Z,15
2016-10-21T11:47:54.021Z,10
2016-10-21T11:48:53.971Z,15
2016-10-21T11:49:53.984Z,15
2016-10-21T11:50:54.028Z,15
2016-10-21T11:51:54.130Z,10
2016-10-21T11:52:54.062Z,15
2016-10-21T11:53:54.129Z,15
2016-10-21T11:54:54.020Z,15
2016-10-21T11:55:54.042Z,15
2016-10-21T11:56:54.061Z,10
2016-10-21T11:57:54.084Z,10
2016-10-21T11:58:54.116Z,10
2016-10-21T11:59:54.173Z,10
2016-10-21T12:00:54.170Z,10
2016-10-21T12:01:54.202Z,10
2016-10-21T12:02:54.225Z,15
2016-10-21T12:03:54.227Z,15
2016-10-21T12:04:54.303Z,15
2016-10-21T12:05:54.283Z,15
2016-10-21T12:06:54.296Z,20
2016-10-21T12:07:54.664Z,20
2016-10-21T12:08:54.355Z,25
2016-10-21T12:09:54.308Z,25
2016-10-21T12:10:54.332Z,25
2016-10-21T12:11:54.342Z,25
2016-10-21T12:12:54.358Z,25
2016-10-21T12:13:54.373Z,25
2016-10-21T12:14:54.383Z,15
2016-10-21T12:15:54.531Z,15
2016-10-21T12:16:54.421Z,10
2016-10-21T12:17:54.461Z,10
2016-10-21T12:18:54.456Z,5
2016-10-21T12:19:54.474Z,5
2016-10-21T12:20:54.508Z,10
2016-10-21T12:21:54.525Z,15
2016-10-21T12:22:54.550Z,20
2016-10-21T12:23:54.608Z,15
2016-10-21T12:24:54.666Z,10
2016-10-21T12:25:54.607Z,5
2016-10-21T12:26:54.606Z,5
2016-10-21T12:27:54.781Z,5
2016-10-21T12:28:54.642Z,5
2016-10-21T12:29:54.656Z,0
2016-10-21T12:30:54.677Z,0
2016-10-21T12:31:54.704Z,0
2016-10-21T12:32:54.762Z,5
2016-10-21T12:33:54.851Z,5
2016-10-21T12:34:54.776Z,10
2016-10-21T12:35:54.855Z,10
2016-10-21T12:36:54.830Z,10
2016-10-21T12:37:54.821Z,10
2016-10-21T12:38:54.884Z,10
2016-10-21T12:39:54.957Z,10
2016-10-21T12:40:54.964Z,10
2016-10-21T12:41:55.110Z,10
2016-10-21T12:42:55.028Z,15
2016-10-21T12:43:54.973Z,20
2016-10-21T12:44:54.984Z,25
2016-10-21T12:45:54.954Z,30
2016-10-21T12:46:55.048Z,30
2016-10-21T12:47:55.111Z,30
2016-10-21T12:48:55.096Z,20
2016-10-21T12:49:55.447Z,20
2016-10-21T12:50:55.053Z,15
2016-10-21T12:51:55.086Z,10
2016-10-21T12:52:55.181Z,5
2016-10-21T12:53:55.184Z,5
2016-10-21T12:54:55.113Z,0
2016-10-21T12:55:55.172Z,0
2016-10-21T12:56:55.500Z,0
2016-10-21T12:57:55.277Z,0
2016-10-21T12:58:55.210Z,0
2016-10-21T12:59:55.210Z,0
2016-10-21T13:00:55.236Z,5
2016-10-21T13:01:55.326Z,5
2016-10-21T13:02:55.315Z,5
2016-10-21T13:03:55.308Z,5
2016-10-21T13:04:55.353Z,10
2016-10-21T13:05:55.316Z,15
2016-10-21T13:06:55.713Z,15
2016-10-21T13:07:55.373Z,15
2016-10-21T13:08:55.489Z,20
2016-10-21T13:09:55.387Z,25
2016-10-21T13:10:55.406Z,30
2016-10-21T13:11:55.437Z,30
2016-10-21T13:12:55.447Z,30
2016-10-21T13:13:55.500Z,30
2016-10-21T13:14:55.556Z,30
2016-10-21T13:15:55.561Z,25
2016-10-21T13:16:55.548Z,25
2016-10-21T13:17:55.568Z,25
2016-10-21T13:18:55.600Z,20
2016-10-21T13:19:55.605Z,15
2016-10-21T13:20:55.618Z,15
2016-10-21T13:21:56.116Z,20
2016-10-21T13:22:55.712Z,20
2016-10-21T13:23:55.729Z,15
2016-10-21T13:24:55.728Z,20
2016-10-21T13:25:55.700Z,20
2016-10-21T13:26:55.777Z,15
2016-10-21T13:27:55.736Z,10
2016-10-21T13:28:55.752Z,10
2016-10-21T13:29:55.911Z,15
2016-10-21T13:30:55.765Z,10
2016-10-21T13:31:55.827Z,10
2016-10-21T13:32:56.000Z,10
2016-10-21T13:33:55.953Z,10
2016-10-21T13:34:55.836Z,10
2016-10-21T13:35:55.888Z,10
2016-10-21T13:36:56.047Z,10
2016-10-21T13:37:56.358Z,10
2016-10-21T13:38:55.974Z,10
2016-10-21T13:39:56.121Z,10
2016-10-21T13:40:55.986Z,10
2016-10-21T13:41:56.100Z,10
2016-10-21T13:42:55.982Z,10
2016-10-21T13:43:56.036Z,10
2016-10-21T13:44:56.175Z,10
2016-10-21T13:45:56.048Z,10
2016-10-21T13:46:56.137Z,10
2016-10-21T13:47:56.288Z,10
2016-10-21T13:48:56.122Z,10
2016-10-21T13:49:56.122Z,10
2016-10-21T13:50:56.153Z,10
2016-10-21T13:51:56.168Z,5
2016-10-21T13:52:56.168Z,5
2016-10-21T13:53:56.180Z,5
2016-10-21T13:54:56.225Z,5
2016-10-21T13:55:56.230Z,5
2016-10-21T13:56:56.245Z,10
2016-10-21T13:57:56.263Z,10
2016-10-21T13:58:56.282Z,5
2016-10-21T13:59:56.292Z,10
2016-10-21T14:00:56.307Z,10
2016-10-21T14:01:56.491Z,10
2016-10-21T14:02:56.353Z,10
2016-10-21T14:03:56.374Z,10
2016-10-21T14:04:56.504Z,10
2016-10-21T14:05:56.517Z,10
2016-10-21T14:06:56.423Z,10
2016-10-21T14:07:56.436Z,10
2016-10-21T14:08:56.489Z,10
2016-10-21T14:09:56.484Z,10
2016-10-21T14:10:56.494Z,10
2016-10-21T14:11:56.519Z,15
2016-10-21T14:12:56.615Z,15
2016-10-21T14:13:56.905Z,15
2016-10-21T14:14:56.614Z,15
2016-10-21T14:15:56.871Z,15
2016-10-21T14:16:56.777Z,15
2016-10-21T14:17:56.649Z,10
2016-10-21T14:18:56.641Z,10
2016-10-21T14:19:56.652Z,10
2016-10-21T14:20:56.685Z,5
2016-10-21T14:21:56.702Z,5
2016-10-21T14:22:56.707Z,5
2016-10-21T14:23:56.733Z,0
2016-10-21T14:24:56.745Z,0
2016-10-21T14:25:56.762Z,0
2016-10-21T14:26:56.802Z,0
2016-10-21T14:27:56.816Z,0
2016-10-21T14:28:56.832Z,0
2016-10-21T14:29:56.856Z,0
2016-10-21T14:30:56.879Z,0
2016-10-21T14:31:56.890Z,0
2016-10-21T14:32:56.898Z,0
2016-10-21T14:33:56.932Z,0
2016-10-21T14:34:56.998Z,0